createdAt,value
2019-02-17T05:00:40.695Z,97.28
2019-02-17T05:01:41.328Z,98.08
2019-02-17T05:02:41.377Z,97.98
2019-02-17T05:03:41.302Z,98.72
2019-02-17T05:04:41.481Z,98.50
2019-02-17T05:05:41.643Z,98.61
2019-02-17T05:06:41.807Z,97.98
2019-02-17T05:07:41.996Z,98.68
2019-02-17T05:08:42.206Z,98.36
2019-02-17T05:09:42.396Z,98.88
2019-02-17T05:10:42.541Z,98.46
2019-02-17T05:11:42.740Z,98.50
2019-02-17T05:12:42.904Z,98.57
2019-02-17T05:13:43.114Z,97.87
2019-02-17T05:14:43.279Z,97.13
2019-02-17T05:15:43.571Z,96.39
2019-02-17T05:16:43.604Z,96.81
2019-02-17T05:17:43.798Z,95.97
2019-02-17T05:18:43.937Z,96.08
2019-02-17T05:19:44.124Z,95.97
2019-02-17T05:20:44.310Z,96.18
2019-02-17T05:21:44.485Z,96.81
2019-02-17T05:22:44.640Z,96.08
2019-02-17T05:23:44.939Z,95.76
2019-02-17T05:24:44.967Z,95.54
2019-02-17T05:25:45.206Z,95.23
2019-02-17T05:26:45.339Z,95.37
2019-02-17T05:27:45.503Z,95.44
2019-02-17T05:28:45.724Z,95.97
2019-02-17T05:29:45.948Z,96.18
2019-02-17T05:30:52.819Z,95.97
2019-02-17T05:31:48.231Z,96.71
2019-02-17T05:32:46.453Z,96.39
2019-02-17T05:33:46.583Z,96.08
2019-02-17T05:34:47.874Z,95.54
2019-02-17T05:35:46.987Z,94.81
2019-02-17T05:36:47.124Z,95.01
2019-02-17T05:37:47.422Z,95.76
2019-02-17T05:38:47.520Z,95.65
2019-02-17T05:39:47.677Z,95.33
2019-02-17T05:40:47.878Z,95.54
2019-02-17T05:41:48.061Z,95.44
2019-02-17T05:42:48.202Z,95.59
2019-02-17T05:43:48.376Z,94.64
2019-02-17T05:44:48.583Z,94.53
2019-02-17T05:45:48.736Z,94.10
2019-02-17T05:46:48.884Z,94.32
2019-02-17T05:47:49.051Z,93.47
2019-02-17T05:48:49.248Z,92.83
2019-02-17T05:49:49.493Z,92.94
2019-02-17T05:50:49.705Z,92.83
2019-02-17T05:51:49.898Z,93.26
2019-02-17T05:52:50.090Z,94.15
2019-02-17T05:53:50.231Z,94.25
2019-02-17T05:54:50.602Z,94.57
2019-02-17T05:55:51.672Z,94.74
2019-02-17T05:56:50.804Z,95.37
2019-02-17T05:57:50.987Z,97.17
2019-02-17T05:58:51.214Z,97.71
2019-02-17T05:59:51.503Z,99.41
2019-02-17T06:00:51.615Z,98.99
2019-02-17T06:01:51.825Z,99.63
2019-02-17T06:02:51.849Z,99.99
2019-02-17T06:03:52.058Z,99.99
2019-02-17T06:04:52.301Z,99.99
2019-02-17T06:05:52.465Z,99.99
2019-02-17T06:06:52.552Z,99.99
2019-02-17T06:07:52.686Z,99.99
2019-02-17T06:08:52.867Z,99.99
2019-02-17T06:09:53.088Z,99.99
2019-02-17T06:10:53.319Z,99.99
2019-02-17T06:11:53.534Z,99.64
2019-02-17T06:12:53.659Z,98.90
2019-02-17T06:13:53.832Z,99.32
2019-02-17T06:14:54.038Z,99.22
2019-02-17T06:15:54.202Z,98.58
2019-02-17T06:16:54.390Z,97.95
2019-02-17T06:17:54.551Z,96.41
2019-02-17T06:18:54.762Z,95.46
2019-02-17T06:19:54.900Z,95.67
2019-02-17T06:20:55.156Z,95.46
2019-02-17T06:21:55.401Z,95.78
2019-02-17T06:22:55.491Z,95.84
2019-02-17T06:23:55.920Z,96.20
2019-02-17T06:24:55.946Z,96.47
2019-02-17T06:25:55.922Z,96.83
2019-02-17T06:26:56.226Z,95.73
2019-02-17T06:27:56.334Z,95.56
2019-02-17T06:28:56.647Z,95.35
2019-02-17T06:29:56.890Z,95.42
2019-02-17T06:30:57.030Z,95.25
2019-02-17T06:31:57.214Z,95.25
2019-02-17T06:32:57.417Z,95.46
2019-02-17T06:33:57.631Z,94.82
2019-02-17T06:34:57.680Z,94.93
2019-02-17T06:35:58.014Z,95.46
2019-02-17T06:36:57.965Z,95.78
2019-02-17T06:37:58.324Z,95.88
2019-02-17T06:38:58.351Z,95.46
2019-02-17T06:39:58.729Z,94.61
2019-02-17T06:40:58.927Z,94.72
2019-02-17T06:41:59.059Z,95.03
2019-02-17T06:42:59.180Z,95.46
2019-02-17T06:43:59.171Z,94.51
2019-02-17T06:44:59.335Z,93.87
2019-02-17T06:45:59.668Z,93.45
2019-02-17T06:47:00.003Z,92.92
2019-02-17T06:47:59.970Z,92.82
2019-02-17T06:49:00.228Z,92.18
2019-02-17T06:50:00.473Z,91.55
2019-02-17T06:51:00.719Z,91.13
2019-02-17T06:52:01.677Z,91.44
2019-02-17T06:53:01.090Z,91.55
2019-02-17T06:54:01.227Z,91.44
2019-02-17T06:55:01.363Z,92.60
2019-02-17T06:56:01.321Z,91.44
2019-02-17T06:57:01.468Z,91.93
2019-02-17T06:58:01.600Z,92.67
2019-02-17T06:59:05.230Z,93.45
2019-02-17T07:00:02.791Z,94.29
2019-02-17T07:01:35.906Z,94.25
2019-02-17T07:02:03.452Z,95.42
2019-02-17T07:03:03.179Z,95.48
2019-02-17T07:04:03.391Z,95.16
2019-02-17T07:05:03.344Z,94.64
2019-02-17T07:06:03.143Z,94.84
2019-02-17T07:07:03.861Z,94.74
2019-02-17T07:08:07.518Z,93.85
2019-02-17T07:09:04.920Z,92.79
2019-02-17T07:10:04.749Z,91.42
2019-02-17T07:11:03.947Z,91.14
2019-02-17T07:12:04.226Z,91.00
2019-02-17T07:13:05.297Z,90.79
2019-02-17T07:14:04.423Z,90.89
2019-02-17T07:15:04.649Z,90.47
2019-02-17T07:16:04.828Z,90.47
2019-02-17T07:17:04.948Z,90.47
2019-02-17T07:18:05.016Z,90.72
2019-02-17T07:19:05.194Z,90.58
2019-02-17T07:20:07.002Z,90.26
2019-02-17T07:21:05.587Z,90.58
2019-02-17T07:22:05.813Z,91.31
2019-02-17T07:23:06.276Z,92.05
2019-02-17T07:24:06.211Z,92.69
2019-02-17T07:25:06.598Z,92.48
2019-02-17T07:26:06.628Z,92.79
2019-02-17T07:27:06.751Z,91.59
2019-02-17T07:28:07.186Z,91.06
2019-02-17T07:29:07.274Z,90.28
2019-02-17T07:30:07.436Z,90.81
2019-02-17T07:31:07.634Z,90.28
2019-02-17T07:32:07.952Z,89.12
2019-02-17T07:33:08.147Z,89.44
2019-02-17T07:34:08.241Z,90.70
2019-02-17T07:35:08.254Z,91.05
2019-02-17T07:36:08.532Z,90.41
2019-02-17T07:37:08.689Z,90.94
2019-02-17T07:38:08.878Z,90.26
2019-02-17T07:39:08.964Z,90.69
2019-02-17T07:40:09.204Z,90.37
2019-02-17T07:41:09.480Z,90.44
2019-02-17T07:42:09.732Z,90.29
2019-02-17T07:43:10.813Z,90.56
2019-02-17T07:44:09.875Z,89.79
2019-02-17T07:45:10.376Z,89.05
2019-02-17T07:46:11.327Z,88.80
2019-02-17T07:47:10.761Z,88.41
2019-02-17T07:48:10.607Z,87.52
2019-02-17T07:49:13.140Z,87.17
2019-02-17T07:50:11.106Z,85.94
2019-02-17T07:51:11.717Z,85.80
2019-02-17T07:52:19.530Z,86.18
2019-02-17T07:53:45.840Z,85.78
2019-02-17T07:54:18.552Z,85.36
2019-02-17T07:55:14.020Z,85.60
2019-02-17T07:56:14.191Z,84.62
2019-02-17T07:59:00.196Z,82.87
2019-02-17T08:00:51.096Z,81.34
2019-02-17T08:01:50.043Z,80.22
2019-02-17T08:02:49.739Z,79.28
2019-02-17T08:03:50.485Z,78.42
2019-02-17T08:04:55.338Z,80.22
2019-02-17T08:05:50.420Z,78.72
2019-02-17T08:11:03.357Z,75.36
2019-02-17T10:10:20.883Z,37.48
2019-02-17T10:11:21.040Z,38.39
2019-02-17T10:12:21.206Z,35.95
2019-02-17T10:13:21.359Z,36.42
2019-02-17T10:14:21.549Z,36.10
2019-02-17T10:15:21.607Z,35.82
2019-02-17T10:17:40.107Z,33.07
2019-02-17T10:18:40.251Z,34.56
2019-02-17T10:19:40.410Z,34.56
2019-02-17T10:20:40.576Z,32.15
2019-02-17T10:21:40.732Z,33.05
2019-02-17T10:22:41.139Z,33.74
2019-02-17T10:23:41.060Z,30.41
2019-02-17T10:24:41.385Z,30.60
2019-02-17T10:25:41.490Z,29.38
2019-02-17T10:26:41.601Z,28.95
2019-02-17T10:27:41.826Z,28.03
2019-02-17T10:28:42.641Z,28.44
2019-02-17T10:29:42.180Z,29.41
2019-02-17T10:30:42.312Z,29.80
2019-02-17T10:31:42.474Z,27.95
2019-02-17T10:32:42.644Z,26.46
2019-02-17T10:33:42.819Z,26.26
2019-02-17T10:34:44.219Z,24.55
2019-02-17T10:35:44.462Z,25.13
2019-02-17T10:36:45.316Z,25.73
2019-02-17T10:37:45.133Z,27.62
2019-02-17T10:38:44.889Z,25.11
2019-02-17T10:39:45.057Z,25.23
2019-02-17T10:40:45.363Z,25.52
2019-02-17T10:41:45.382Z,27.08
2019-02-17T10:42:45.525Z,23.27
2019-02-17T10:43:45.809Z,22.55
2019-02-17T10:44:45.971Z,22.83
2019-02-17T10:45:45.983Z,23.04
2019-02-17T10:46:46.320Z,23.57
2019-02-17T10:47:46.599Z,23.97
2019-02-17T10:48:47.018Z,22.88
2019-02-17T10:49:46.841Z,24.07
2019-02-17T10:50:48.054Z,23.88
2019-02-17T10:51:47.260Z,23.86
2019-02-17T10:52:56.929Z,22.11
2019-02-17T10:54:25.454Z,24.85
2019-02-17T10:54:49.541Z,23.72
2019-02-17T10:55:48.004Z,24.80
2019-02-17T10:56:48.120Z,22.99
2019-02-17T10:57:48.371Z,23.75
2019-02-17T10:58:49.492Z,23.43
2019-02-17T11:30:31.952Z,20.45
2019-02-17T11:31:33.329Z,20.92
2019-02-17T11:32:33.495Z,19.64
2019-02-17T11:33:33.668Z,20.11
2019-02-17T11:34:33.832Z,20.10
2019-02-17T11:35:33.968Z,20.57
2019-02-17T11:36:34.140Z,19.58
2019-02-17T11:37:34.294Z,19.09
2019-02-17T11:38:34.489Z,19.67
2019-02-17T11:39:34.662Z,18.79
2019-02-17T11:40:35.831Z,19.19
2019-02-17T11:41:34.953Z,18.88
2019-02-17T11:42:35.114Z,18.86
2019-02-17T11:43:35.341Z,19.93
2019-02-17T11:44:35.537Z,18.93
2019-02-17T11:45:35.676Z,19.32
2019-02-17T11:46:35.843Z,18.63
2019-02-17T11:47:36.033Z,19.80
2019-02-17T11:48:36.197Z,18.93
2019-02-17T11:49:36.391Z,18.84
2019-02-17T11:50:36.560Z,19.12
2019-02-17T11:51:36.742Z,19.98
2019-02-17T11:52:36.975Z,17.41
2019-02-17T11:53:37.188Z,18.38
2019-02-17T11:54:37.356Z,18.38
2019-02-17T11:55:37.517Z,18.69
2019-02-17T11:56:37.690Z,18.77
2019-02-17T11:57:37.888Z,18.08
2019-02-17T11:58:38.065Z,18.46
2019-02-17T11:59:39.493Z,16.97
2019-02-17T12:00:38.482Z,17.25
2019-02-17T12:01:38.661Z,15.48
2019-02-17T12:02:38.899Z,17.05
2019-02-17T12:03:39.043Z,14.89
2019-02-17T12:04:39.265Z,15.57
2019-02-17T12:05:39.465Z,15.67
2019-02-17T12:06:39.657Z,15.00
2019-02-17T12:07:39.874Z,17.14
2019-02-17T12:08:40.093Z,14.97
2019-02-17T12:09:40.272Z,15.96
2019-02-17T12:10:40.342Z,15.95
2019-02-17T12:11:40.615Z,13.89
2019-02-17T12:12:40.721Z,13.40
2019-02-17T12:13:41.014Z,14.69
2019-02-17T12:14:41.085Z,16.17
2019-02-17T12:15:41.127Z,15.58
2019-02-17T12:16:41.335Z,16.17
2019-02-17T12:17:41.622Z,16.46
2019-02-17T12:18:41.668Z,16.45
2019-02-17T12:19:41.934Z,14.89
2019-02-17T12:20:41.926Z,13.90
2019-02-17T12:21:42.179Z,14.42
2019-02-17T12:22:42.416Z,15.22
2019-02-17T12:23:42.501Z,15.82
2019-02-17T12:24:42.666Z,17.97
2019-02-17T12:25:42.859Z,16.72
2019-02-17T12:26:42.993Z,15.95
2019-02-17T12:27:43.136Z,18.21
2019-02-17T12:28:43.296Z,16.52
2019-02-17T12:29:43.441Z,16.72
2019-02-17T12:30:43.578Z,17.98
2019-02-17T12:31:43.694Z,15.42
2019-02-17T12:32:44.260Z,17.31
2019-02-17T12:33:44.129Z,17.42
2019-02-17T12:34:44.276Z,16.16
2019-02-17T12:35:44.548Z,18.02
2019-02-17T12:36:44.574Z,16.46
2019-02-17T12:37:47.218Z,18.05
2019-02-17T12:38:45.025Z,17.85
2019-02-17T12:39:45.304Z,17.17
2019-02-17T12:40:45.405Z,17.64
2019-02-17T12:41:45.603Z,17.42
2019-02-17T12:42:45.789Z,15.75
2019-02-17T12:43:45.971Z,15.64
2019-02-17T12:44:46.129Z,16.82
2019-02-17T12:45:46.286Z,16.35
2019-02-17T13:06:22.366Z,17.33
2019-02-17T13:07:23.801Z,17.24
2019-02-17T13:08:25.374Z,18.12
2019-02-17T13:09:24.165Z,16.26
2019-02-17T13:10:24.432Z,17.63
2019-02-17T13:11:24.442Z,15.95
2019-02-17T13:12:24.914Z,15.95
2019-02-17T13:13:25.352Z,15.88
2019-02-17T13:14:25.653Z,17.08
2019-02-17T13:15:25.532Z,19.44
2019-02-17T13:16:25.683Z,17.68
2019-02-17T13:17:25.893Z,17.69
2019-02-17T13:18:25.785Z,18.29
2019-02-17T13:19:26.092Z,18.88
2019-02-17T13:20:26.371Z,17.39
2019-02-17T13:21:28.788Z,18.18
2019-02-17T13:22:28.050Z,19.09
2019-02-17T13:23:26.851Z,18.31
2019-02-17T13:24:27.656Z,19.10
2019-02-17T13:25:30.461Z,19.51
2019-02-17T13:26:29.012Z,18.71
2019-02-17T13:27:27.400Z,19.62
2019-02-17T13:28:27.764Z,18.54
2019-02-17T13:29:28.003Z,18.44
2019-02-17T13:30:28.327Z,18.71
2019-02-17T13:31:28.289Z,17.54
2019-02-17T13:32:28.442Z,19.62
2019-02-17T13:33:38.486Z,19.23
2019-02-17T13:34:29.766Z,19.34
2019-02-17T13:35:28.826Z,18.95
2019-02-17T13:36:29.155Z,19.15
2019-02-17T13:37:30.303Z,19.27
2019-02-17T13:38:30.856Z,21.08
2019-02-17T13:39:29.666Z,19.20
2019-02-17T13:40:29.648Z,19.79
2019-02-17T13:41:30.044Z,21.57
2019-02-17T13:42:29.994Z,19.68
2019-02-17T13:43:30.812Z,20.70
2019-02-17T13:44:30.527Z,19.02
2019-02-17T13:45:30.823Z,20.35
2019-02-17T13:46:31.070Z,21.06
2019-02-17T13:47:31.167Z,21.85
2019-02-17T13:48:31.330Z,21.56
2019-02-17T13:49:31.249Z,22.65
2019-02-17T13:50:31.524Z,21.34
2019-02-17T13:51:31.751Z,21.03
2019-02-17T13:52:32.212Z,20.02
2019-02-17T13:53:35.050Z,19.81
2019-02-17T13:54:32.324Z,21.00
2019-02-17T13:55:33.591Z,20.19
2019-02-17T13:56:32.797Z,20.50
2019-02-17T13:57:32.746Z,20.53
2019-02-17T13:58:33.101Z,21.93
2019-02-17T13:59:33.409Z,20.43
2019-02-17T14:00:33.338Z,21.64
2019-02-17T14:01:33.698Z,22.64
2019-02-17T14:02:33.662Z,20.56
2019-02-17T14:03:34.110Z,20.48
